createdAt,value
2018-05-31T00:01:27.802Z,20.47
2018-05-31T00:03:56.285Z,19.37
2018-05-31T00:06:24.847Z,22.00
2018-05-31T00:08:54.329Z,21.70
2018-05-31T00:11:23.058Z,32.50
2018-05-31T00:13:51.518Z,22.17
2018-05-31T00:16:19.951Z,23.83
2018-05-31T00:18:48.409Z,21.77
2018-05-31T00:21:16.842Z,28.80
2018-05-31T00:23:45.239Z,23.83
2018-05-31T00:26:13.763Z,26.90
2018-05-31T00:28:42.247Z,23.60
2018-05-31T00:31:10.712Z,24.47
2018-05-31T00:33:39.162Z,20.63
2018-05-31T00:36:07.775Z,22.40
2018-05-31T00:38:36.200Z,23.80
2018-05-31T00:41:04.689Z,23.90
2018-05-31T00:43:33.149Z,22.37
2018-05-31T00:46:01.550Z,25.07
2018-05-31T00:48:29.996Z,20.17
2018-05-31T00:50:58.461Z,22.00
2018-05-31T00:53:26.933Z,23.57
2018-05-31T00:56:07.192Z,23.50
2018-05-31T00:58:35.605Z,26.40
2018-05-31T01:01:04.102Z,24.70
2018-05-31T01:03:32.591Z,24.30
2018-05-31T01:06:02.017Z,21.73
2018-05-31T01:08:30.600Z,21.40
2018-05-31T01:10:59.027Z,23.33
2018-05-31T01:13:27.462Z,22.43
2018-05-31T01:15:55.891Z,28.87
2018-05-31T01:18:24.313Z,25.20
2018-05-31T01:20:52.782Z,23.40
2018-05-31T01:23:21.274Z,20.40
2018-05-31T01:25:49.711Z,25.20
2018-05-31T01:28:18.185Z,23.10
2018-05-31T01:30:46.638Z,31.93
2018-05-31T01:33:15.188Z,24.87
2018-05-31T01:35:43.706Z,21.80
2018-05-31T01:38:23.892Z,19.90
2018-05-31T01:40:52.377Z,20.13
2018-05-31T01:43:20.823Z,17.63
2018-05-31T01:45:49.245Z,22.53
2018-05-31T01:48:17.740Z,27.63
2018-05-31T01:50:46.186Z,25.37
2018-05-31T01:53:14.604Z,22.63
2018-05-31T01:55:43.059Z,24.27
2018-05-31T01:58:11.526Z,21.37
2018-05-31T02:00:39.984Z,25.90
2018-05-31T02:03:08.501Z,25.10
2018-05-31T02:05:36.915Z,29.60
2018-05-31T02:08:05.345Z,26.93
2018-05-31T02:10:33.791Z,25.70
2018-05-31T02:13:02.437Z,32.60
2018-05-31T02:15:30.892Z,32.30
2018-05-31T02:17:59.337Z,25.73
2018-05-31T02:20:27.756Z,22.70
2018-05-31T02:22:56.207Z,31.77
2018-05-31T02:25:24.662Z,21.90
2018-05-31T02:27:53.136Z,24.97
2018-05-31T02:30:21.626Z,24.10
2018-05-31T02:32:50.077Z,28.13
2018-05-31T02:35:18.505Z,25.63
2018-05-31T02:37:46.943Z,25.40
2018-05-31T02:40:15.380Z,22.30
2018-05-31T02:42:43.824Z,23.33
2018-05-31T02:45:12.253Z,21.53
2018-05-31T02:47:40.669Z,24.50
2018-05-31T02:50:09.120Z,23.80
2018-05-31T02:52:37.562Z,29.00
2018-05-31T02:55:06.124Z,23.27
2018-05-31T02:57:34.558Z,19.50
2018-05-31T03:00:02.958Z,19.80
2018-05-31T03:02:37.374Z,19.87
2018-05-31T03:05:05.829Z,24.23
2018-05-31T03:07:34.219Z,26.87
2018-05-31T03:10:02.708Z,21.80
2018-05-31T03:12:31.239Z,24.77
2018-05-31T03:14:59.697Z,21.33
2018-05-31T03:17:28.168Z,24.43
2018-05-31T03:19:57.747Z,21.73
2018-05-31T03:22:26.190Z,24.93
2018-05-31T03:24:54.657Z,22.33
2018-05-31T03:27:24.189Z,23.00
2018-05-31T03:29:52.704Z,19.60
2018-05-31T03:32:21.226Z,21.87
2018-05-31T03:34:49.700Z,19.17
2018-05-31T03:37:18.121Z,20.77
2018-05-31T03:39:47.565Z,20.17
2018-05-31T03:42:16.108Z,23.40
2018-05-31T03:44:44.498Z,19.03
2018-05-31T03:47:13.131Z,18.57
2018-05-31T03:49:41.566Z,24.63
2018-05-31T03:52:10.192Z,21.43
2018-05-31T03:54:38.653Z,25.70
2018-05-31T03:57:07.103Z,26.70
2018-05-31T03:59:35.540Z,22.03
2018-05-31T04:02:04.016Z,19.10
2018-05-31T04:04:32.549Z,26.87
2018-05-31T04:07:01.082Z,20.13
2018-05-31T04:09:29.666Z,18.87
2018-05-31T04:11:58.262Z,17.50
2018-05-31T04:14:26.827Z,18.30
2018-05-31T04:16:55.344Z,21.53
2018-05-31T04:19:23.791Z,18.17
2018-05-31T04:21:53.143Z,17.50
2018-05-31T04:24:21.657Z,16.37
2018-05-31T04:26:50.145Z,16.57
2018-05-31T04:29:18.649Z,16.27
2018-05-31T04:31:47.148Z,16.10
2018-05-31T04:34:15.602Z,16.50
2018-05-31T04:36:44.127Z,18.20
2018-05-31T04:39:14.757Z,16.13
2018-05-31T04:41:43.326Z,16.00
2018-05-31T04:44:11.805Z,21.67
2018-05-31T04:46:40.330Z,20.50
2018-05-31T04:49:08.778Z,14.13
2018-05-31T04:51:37.315Z,15.13
2018-05-31T04:54:06.708Z,13.57
2018-05-31T04:56:35.128Z,17.27
2018-05-31T04:59:03.693Z,20.90
2018-05-31T05:01:32.163Z,17.20
2018-05-31T05:04:00.669Z,17.23
2018-05-31T05:06:29.220Z,15.87
2018-05-31T05:08:57.683Z,14.60
2018-05-31T05:11:26.097Z,15.13
2018-05-31T05:13:54.716Z,18.63
2018-05-31T05:16:23.101Z,13.70
2018-05-31T05:18:51.626Z,13.63
2018-05-31T05:21:20.023Z,12.60
2018-05-31T05:23:48.441Z,18.53
2018-05-31T05:26:16.864Z,13.30
2018-05-31T05:28:45.332Z,14.47
2018-05-31T05:31:14.130Z,10.37
2018-05-31T05:33:42.635Z,12.03
2018-05-31T05:36:11.467Z,13.43
2018-05-31T05:38:40.049Z,12.83
2018-05-31T05:41:08.571Z,25.53
2018-05-31T05:43:37.119Z,10.33
2018-05-31T05:46:05.498Z,9.67
2018-05-31T05:48:33.876Z,9.90
2018-05-31T05:51:02.328Z,9.90
2018-05-31T05:53:32.703Z,12.97
2018-05-31T05:56:02.019Z,8.70
2018-05-31T05:58:30.436Z,10.53
2018-05-31T06:01:00.758Z,10.00
2018-05-31T06:03:29.216Z,9.20
2018-05-31T06:05:57.703Z,9.23
2018-05-31T06:08:26.130Z,13.43
2018-05-31T06:10:54.668Z,13.43
2018-05-31T06:13:23.114Z,10.30
2018-05-31T06:15:51.576Z,13.40
2018-05-31T06:18:19.999Z,10.70
2018-05-31T06:20:48.379Z,17.50
2018-05-31T06:23:16.820Z,9.37
2018-05-31T06:25:45.368Z,8.50
2018-05-31T06:28:13.797Z,9.13
2018-05-31T06:30:42.189Z,11.03
2018-05-31T06:33:10.581Z,9.97
2018-05-31T06:35:40.970Z,12.93
2018-05-31T06:38:09.376Z,8.73
2018-05-31T06:40:37.883Z,9.43
2018-05-31T06:43:06.261Z,9.50
2018-05-31T06:45:34.650Z,9.43
2018-05-31T06:48:03.090Z,10.73
2018-05-31T06:50:31.482Z,7.77
2018-05-31T06:52:59.924Z,13.47
2018-05-31T06:55:28.368Z,14.80
2018-05-31T06:57:56.899Z,7.90
2018-05-31T07:00:25.640Z,8.33
2018-05-31T07:02:54.101Z,8.80
2018-05-31T07:05:22.575Z,8.87
2018-05-31T07:07:51.903Z,10.70
2018-05-31T07:10:20.353Z,9.80
2018-05-31T07:12:48.910Z,10.37
2018-05-31T07:15:17.284Z,9.80
2018-05-31T07:17:45.838Z,9.53
2018-05-31T07:20:14.261Z,13.23
2018-05-31T07:22:43.585Z,9.00
2018-05-31T07:25:12.035Z,9.10
2018-05-31T07:27:40.514Z,8.90
2018-05-31T07:30:09.033Z,9.77
2018-05-31T07:32:37.430Z,11.60
2018-05-31T07:35:05.820Z,12.40
2018-05-31T07:37:35.206Z,10.20
2018-05-31T07:40:03.592Z,9.00
2018-05-31T07:42:32.364Z,9.33
2018-05-31T07:45:00.802Z,10.40
2018-05-31T07:47:30.225Z,9.50
2018-05-31T07:49:58.722Z,9.30
2018-05-31T07:52:27.198Z,12.00
2018-05-31T07:54:55.636Z,13.40
2018-05-31T07:57:25.079Z,8.43
2018-05-31T07:59:53.468Z,14.57
2018-05-31T08:02:21.871Z,11.07
2018-05-31T08:04:50.299Z,8.97
2018-05-31T08:07:19.231Z,7.83
2018-05-31T08:09:47.753Z,9.00
2018-05-31T08:12:16.190Z,8.60
2018-05-31T08:14:44.564Z,10.70
2018-05-31T08:17:13.114Z,12.40
2018-05-31T08:19:41.567Z,9.70
2018-05-31T08:22:09.941Z,12.23
2018-05-31T08:24:38.387Z,10.73
2018-05-31T08:27:07.752Z,7.43
2018-05-31T08:29:36.148Z,12.27
2018-05-31T08:32:04.634Z,11.63
2018-05-31T08:34:35.026Z,10.23
2018-05-31T08:37:04.358Z,7.90
2018-05-31T08:39:32.768Z,9.50
2018-05-31T08:42:02.022Z,8.13
2018-05-31T08:44:30.545Z,9.87
2018-05-31T08:46:59.335Z,8.13
2018-05-31T08:49:28.747Z,12.23
2018-05-31T08:51:57.272Z,9.53
2018-05-31T08:54:25.970Z,8.63
2018-05-31T08:56:54.695Z,9.83
2018-05-31T08:59:23.212Z,10.97
2018-05-31T09:01:51.619Z,8.70
2018-05-31T09:04:20.126Z,10.03
2018-05-31T09:06:48.624Z,8.87
2018-05-31T09:09:18.005Z,12.60
2018-05-31T09:11:47.399Z,12.87
2018-05-31T09:14:15.834Z,11.73
2018-05-31T09:16:44.234Z,8.73
2018-05-31T09:19:13.003Z,9.20
2018-05-31T09:21:41.790Z,8.37
2018-05-31T09:24:10.608Z,11.10
2018-05-31T09:26:39.080Z,7.70
2018-05-31T09:29:07.560Z,10.10
2018-05-31T09:31:36.277Z,14.17
2018-05-31T09:34:04.774Z,9.57
2018-05-31T09:36:34.568Z,8.20
2018-05-31T09:39:03.626Z,10.17
2018-05-31T09:41:32.189Z,9.37
2018-05-31T09:44:00.653Z,8.77
2018-05-31T09:46:29.278Z,9.40
2018-05-31T09:48:57.976Z,8.00
2018-05-31T09:51:26.443Z,7.90
2018-05-31T09:53:55.282Z,8.13
2018-05-31T09:56:24.396Z,8.73
2018-05-31T09:58:53.017Z,8.73
2018-05-31T10:01:21.679Z,8.73
2018-05-31T10:03:50.357Z,9.20
2018-05-31T10:06:24.117Z,8.97
2018-05-31T10:08:53.150Z,6.43
2018-05-31T10:11:21.648Z,7.00
2018-05-31T10:13:50.218Z,6.83
2018-05-31T10:16:18.822Z,6.33
2018-05-31T10:18:47.513Z,6.30
2018-05-31T10:21:16.166Z,7.07
2018-05-31T10:23:48.914Z,11.40
2018-05-31T10:26:17.856Z,7.90
2018-05-31T10:28:46.562Z,9.33
2018-05-31T10:31:17.623Z,6.80
2018-05-31T10:33:47.519Z,6.10
2018-05-31T10:36:17.111Z,11.80
2018-05-31T10:38:45.679Z,9.50
2018-05-31T10:41:14.181Z,6.43
2018-05-31T10:46:17.544Z,6.90
2018-05-31T10:48:46.090Z,9.27
2018-05-31T10:51:18.659Z,8.03
2018-05-31T10:53:47.166Z,7.77
2018-05-31T10:56:17.190Z,9.70
2018-05-31T10:58:46.092Z,8.70
2018-05-31T11:01:14.607Z,7.30
2018-05-31T11:03:43.092Z,7.30
2018-05-31T11:06:11.616Z,9.07
2018-05-31T11:08:40.089Z,8.37
2018-05-31T11:11:08.713Z,14.13
2018-05-31T11:13:37.279Z,7.23
2018-05-31T11:16:05.723Z,7.00
2018-05-31T11:18:34.256Z,6.73
2018-05-31T11:21:19.729Z,6.57
2018-05-31T11:23:48.858Z,9.67
2018-05-31T11:26:19.206Z,8.27
2018-05-31T11:28:48.006Z,9.20
2018-05-31T11:31:16.631Z,6.77
2018-05-31T11:33:45.061Z,10.40
2018-05-31T11:36:13.563Z,8.20
2018-05-31T11:38:42.004Z,7.53
2018-05-31T11:41:10.956Z,10.60
2018-05-31T11:43:41.099Z,7.40
2018-05-31T11:46:15.362Z,7.57
2018-05-31T11:48:44.860Z,6.53
2018-05-31T11:53:48.870Z,6.17
2018-05-31T11:56:17.910Z,8.43
2018-05-31T11:58:46.425Z,7.00
2018-05-31T12:01:15.031Z,6.50
2018-05-31T12:03:43.704Z,10.13
2018-05-31T12:06:12.199Z,7.70
2018-05-31T12:08:40.875Z,8.73
2018-05-31T12:11:09.437Z,6.80
2018-05-31T12:13:39.090Z,7.37
2018-05-31T12:16:09.521Z,8.00
2018-05-31T12:18:38.139Z,8.20
2018-05-31T12:21:07.496Z,7.40
2018-05-31T12:23:39.839Z,8.27
2018-05-31T12:26:09.505Z,13.03
2018-05-31T12:28:39.318Z,7.23
2018-05-31T12:31:08.417Z,7.10
2018-05-31T12:33:38.041Z,8.97
2018-05-31T12:36:06.825Z,9.47
2018-05-31T12:38:35.854Z,9.57
2018-05-31T12:41:04.576Z,7.37
2018-05-31T12:43:33.594Z,7.30
2018-05-31T12:46:03.194Z,8.63
2018-05-31T12:48:32.592Z,8.00
2018-05-31T12:51:02.298Z,6.40
2018-05-31T12:53:31.904Z,8.50
2018-05-31T12:56:00.786Z,9.57
2018-05-31T12:58:29.307Z,10.23
2018-05-31T13:00:58.002Z,6.33
2018-05-31T13:03:28.203Z,10.00
2018-05-31T13:05:57.749Z,6.07
2018-05-31T13:08:28.822Z,6.73
2018-05-31T13:10:57.529Z,15.50
2018-05-31T13:13:33.775Z,11.67
2018-05-31T13:16:02.569Z,11.57
2018-05-31T13:18:31.834Z,11.30
2018-05-31T13:21:02.003Z,14.80
2018-05-31T13:23:30.987Z,14.17
2018-05-31T13:26:00.250Z,22.00
2018-05-31T13:28:29.315Z,12.20
2018-05-31T13:30:58.581Z,12.47
2018-05-31T13:33:29.830Z,10.60
2018-05-31T13:35:58.803Z,10.70
2018-05-31T13:38:28.545Z,9.60
2018-05-31T13:40:57.588Z,13.00
2018-05-31T13:43:26.645Z,7.87
2018-05-31T13:45:55.192Z,9.10
2018-05-31T13:48:24.099Z,7.60
2018-05-31T13:50:52.721Z,12.60
2018-05-31T13:53:21.451Z,24.00
2018-05-31T13:55:50.898Z,9.87
2018-05-31T13:58:19.559Z,11.47
2018-05-31T14:00:48.155Z,18.33
2018-05-31T14:03:16.926Z,19.10
2018-05-31T14:05:45.389Z,27.57
2018-05-31T14:08:13.944Z,26.93
2018-05-31T14:10:42.440Z,20.00
2018-05-31T14:13:11.219Z,22.37
2018-05-31T14:15:39.991Z,15.43
2018-05-31T14:18:08.732Z,13.90
2018-05-31T14:20:37.352Z,17.23
2018-05-31T14:23:06.629Z,16.57
2018-05-31T14:25:35.115Z,16.00
2018-05-31T14:28:03.643Z,12.93
2018-05-31T14:30:32.030Z,18.80
2018-05-31T14:33:01.504Z,15.37
2018-05-31T14:35:30.055Z,11.83
2018-05-31T14:37:58.542Z,10.50
2018-05-31T14:40:27.230Z,10.17
2018-05-31T14:42:56.764Z,13.23
2018-05-31T14:45:25.274Z,11.63
2018-05-31T14:47:54.010Z,13.43
2018-05-31T14:50:22.578Z,13.23
2018-05-31T14:52:51.386Z,20.50
2018-05-31T14:55:20.259Z,13.03
2018-05-31T14:57:48.693Z,11.70
2018-05-31T15:00:17.095Z,11.30
2018-05-31T15:02:45.522Z,14.00
2018-05-31T15:05:14.825Z,10.63
2018-05-31T15:07:44.442Z,9.67
2018-05-31T15:10:13.835Z,13.13
2018-05-31T15:12:42.720Z,10.07
2018-05-31T15:15:11.551Z,10.33
2018-05-31T15:17:40.067Z,13.23
2018-05-31T15:20:08.781Z,11.60
2018-05-31T15:22:37.231Z,8.20
2018-05-31T15:25:05.668Z,10.27
2018-05-31T15:27:34.965Z,13.43
2018-05-31T15:30:03.723Z,17.33
2018-05-31T15:32:32.493Z,14.37
2018-05-31T15:35:01.067Z,10.33
2018-05-31T15:37:29.857Z,18.07
2018-05-31T15:39:58.785Z,10.77
2018-05-31T15:42:27.682Z,12.70
2018-05-31T15:44:56.915Z,12.60
2018-05-31T15:47:27.208Z,18.17
2018-05-31T15:49:55.892Z,14.83
2018-05-31T15:52:24.917Z,12.87
2018-05-31T15:54:54.379Z,13.07
2018-05-31T15:57:26.648Z,12.07
2018-05-31T15:59:55.297Z,10.10
2018-05-31T16:02:28.942Z,14.30
2018-05-31T16:05:07.066Z,15.53
2018-05-31T16:07:37.315Z,18.37
2018-05-31T16:10:06.785Z,15.03
2018-05-31T16:12:36.951Z,13.77
2018-05-31T16:15:05.486Z,16.20
2018-05-31T16:17:34.031Z,14.50
2018-05-31T16:20:02.653Z,15.93
2018-05-31T16:22:31.266Z,12.93
2018-05-31T16:24:59.945Z,11.60
2018-05-31T16:27:28.584Z,10.93
2018-05-31T16:29:57.019Z,12.93
2018-05-31T16:32:25.433Z,15.40
2018-05-31T16:34:54.009Z,12.83
2018-05-31T16:37:22.498Z,11.87
2018-05-31T16:39:51.814Z,15.67
2018-05-31T16:42:20.350Z,14.60
2018-05-31T16:44:49.820Z,16.20
2018-05-31T16:47:18.334Z,12.73
2018-05-31T16:49:46.761Z,14.50
2018-05-31T16:52:15.208Z,14.60
2018-05-31T16:54:43.659Z,14.13
2018-05-31T16:57:12.155Z,14.00
2018-05-31T16:59:41.111Z,13.00
2018-05-31T17:02:10.546Z,13.70
2018-05-31T17:06:03.013Z,12.43
2018-05-31T17:08:31.402Z,12.13
2018-05-31T17:10:59.813Z,11.27
2018-05-31T17:13:28.341Z,17.30
2018-05-31T17:15:56.791Z,12.67
2018-05-31T17:18:25.266Z,13.10
2018-05-31T17:20:53.833Z,13.57
2018-05-31T17:23:22.865Z,10.27
2018-05-31T17:25:55.271Z,15.57
2018-05-31T17:28:23.854Z,10.60
2018-05-31T17:30:52.270Z,16.90
2018-05-31T17:33:20.671Z,12.33
2018-05-31T17:35:49.114Z,13.00
2018-05-31T17:38:17.644Z,11.97
2018-05-31T17:40:46.159Z,14.17
2018-05-31T17:43:14.608Z,16.20
2018-05-31T17:45:43.124Z,16.37
2018-05-31T17:48:13.474Z,16.40
2018-05-31T17:50:41.847Z,14.37
2018-05-31T17:53:10.258Z,13.80
2018-05-31T17:55:38.654Z,11.37
2018-05-31T17:58:08.072Z,18.20
2018-05-31T18:00:36.442Z,12.83
2018-05-31T18:03:04.878Z,15.67
2018-05-31T18:05:33.279Z,17.70
2018-05-31T18:08:01.658Z,13.90
2018-05-31T18:10:30.061Z,14.80
2018-05-31T18:12:58.443Z,14.00
2018-05-31T18:15:27.090Z,16.80
2018-05-31T18:17:55.679Z,15.03
2018-05-31T18:20:24.171Z,12.50
2018-05-31T18:22:56.448Z,12.47
2018-05-31T18:25:24.925Z,15.23
2018-05-31T18:27:53.397Z,13.77
2018-05-31T18:30:21.826Z,12.83
2018-05-31T18:32:54.148Z,20.00
2018-05-31T18:35:22.631Z,13.40
2018-05-31T18:37:51.061Z,16.10
2018-05-31T18:40:19.514Z,18.60
2018-05-31T18:42:47.946Z,17.80
2018-05-31T18:45:16.469Z,14.03
2018-05-31T18:47:44.920Z,15.73
2018-05-31T18:50:13.350Z,17.63
2018-05-31T18:52:41.713Z,16.63
2018-05-31T18:55:10.139Z,15.33
2018-05-31T18:57:38.518Z,13.50
2018-05-31T19:00:06.966Z,16.73
2018-05-31T19:02:35.425Z,24.53
2018-05-31T19:05:03.948Z,60.13
2018-05-31T19:07:32.418Z,20.80
2018-05-31T19:10:00.850Z,24.00
2018-05-31T19:12:34.795Z,28.07
2018-05-31T19:15:03.165Z,34.03
2018-05-31T19:17:31.594Z,31.27
2018-05-31T19:20:00.113Z,32.67
2018-05-31T19:22:29.354Z,33.23
2018-05-31T19:25:03.262Z,30.13
2018-05-31T19:27:31.719Z,30.20
2018-05-31T19:30:05.918Z,28.93
2018-05-31T19:32:34.339Z,23.50
2018-05-31T19:35:03.689Z,27.60
2018-05-31T19:37:32.053Z,37.80
2018-05-31T19:40:00.423Z,27.03
2018-05-31T19:42:34.604Z,27.50
2018-05-31T19:45:03.061Z,35.57
2018-05-31T19:47:31.525Z,33.27
2018-05-31T19:50:00.015Z,40.33
2018-05-31T19:52:34.140Z,39.77
2018-05-31T19:55:02.509Z,34.27
2018-05-31T19:57:30.994Z,41.53
2018-05-31T20:00:04.902Z,41.60
2018-05-31T20:02:38.908Z,40.07
2018-05-31T20:05:07.371Z,41.13
2018-05-31T20:07:35.763Z,40.97
2018-05-31T20:10:04.207Z,50.43
2018-05-31T20:12:32.660Z,42.47
2018-05-31T20:15:01.038Z,43.40
2018-05-31T20:17:29.516Z,48.10
2018-05-31T20:19:57.867Z,39.93
2018-05-31T20:22:26.364Z,45.23
2018-05-31T20:24:54.754Z,50.37
2018-05-31T20:27:23.226Z,49.93
2018-05-31T20:29:51.595Z,48.43
2018-05-31T20:32:19.957Z,54.80
2018-05-31T20:34:48.400Z,61.23
2018-05-31T20:37:16.807Z,51.60
2018-05-31T20:39:45.364Z,56.87
2018-05-31T20:42:13.782Z,59.13
2018-05-31T20:44:42.275Z,66.53
2018-05-31T20:47:10.846Z,67.83
2018-05-31T20:49:39.200Z,56.87
2018-05-31T20:52:07.632Z,65.67
2018-05-31T20:54:35.990Z,55.60
2018-05-31T20:57:04.475Z,56.70
2018-05-31T20:59:33.856Z,68.33
2018-05-31T21:02:02.247Z,57.13
2018-05-31T21:04:30.651Z,63.93
2018-05-31T21:06:59.125Z,59.00
2018-05-31T21:09:27.546Z,59.87
2018-05-31T21:11:56.025Z,53.37
2018-05-31T21:14:24.361Z,56.30
2018-05-31T21:16:52.745Z,65.97
2018-05-31T21:19:21.161Z,56.97
2018-05-31T21:21:49.527Z,60.80
2018-05-31T21:24:17.893Z,62.47
2018-05-31T21:26:46.326Z,82.00
2018-05-31T21:29:14.734Z,62.33
2018-05-31T21:31:43.224Z,62.00
2018-05-31T21:34:11.690Z,62.57
2018-05-31T21:36:40.136Z,63.10
2018-05-31T21:39:08.506Z,65.80
2018-05-31T21:41:36.933Z,74.17
2018-05-31T21:44:05.289Z,75.03
2018-05-31T21:46:33.654Z,86.17
2018-05-31T21:49:03.112Z,78.17
2018-05-31T21:51:31.504Z,76.00
2018-05-31T21:53:59.873Z,75.03
2018-05-31T21:56:28.388Z,82.93
2018-05-31T21:58:56.802Z,66.80
2018-05-31T22:01:25.236Z,67.17
2018-05-31T22:03:53.671Z,70.30
2018-05-31T22:06:22.065Z,73.43
2018-05-31T22:08:50.430Z,62.10
2018-05-31T22:11:18.909Z,74.70
2018-05-31T22:13:47.251Z,77.63
2018-05-31T22:16:15.626Z,67.87
2018-05-31T22:18:44.031Z,74.57
2018-05-31T22:21:12.385Z,80.17
2018-05-31T22:23:40.840Z,68.40
2018-05-31T22:26:09.239Z,76.97
2018-05-31T22:28:37.666Z,71.33
2018-05-31T22:31:06.044Z,81.57
2018-05-31T22:33:34.523Z,66.83
2018-05-31T22:36:02.927Z,61.00
2018-05-31T22:38:31.340Z,63.20
2018-05-31T22:40:59.733Z,68.63
2018-05-31T22:43:29.219Z,66.80
2018-05-31T22:45:57.662Z,77.13
2018-05-31T22:48:26.092Z,74.73
2018-05-31T22:50:54.464Z,75.73
2018-05-31T22:53:22.841Z,75.73
2018-05-31T22:55:51.215Z,70.47
2018-05-31T22:58:19.660Z,71.00
2018-05-31T23:00:48.049Z,74.67
2018-05-31T23:03:16.399Z,70.50
2018-05-31T23:05:44.847Z,68.70
2018-05-31T23:08:13.188Z,67.10
2018-05-31T23:10:41.645Z,63.97
2018-05-31T23:13:10.027Z,67.63
2018-05-31T23:15:38.405Z,63.20
2018-05-31T23:18:06.756Z,58.80
2018-05-31T23:20:35.224Z,57.30
2018-05-31T23:23:03.636Z,58.10
2018-05-31T23:25:32.050Z,59.90
2018-05-31T23:28:00.621Z,60.93
2018-05-31T23:30:28.989Z,56.40
2018-05-31T23:32:57.366Z,64.10
2018-05-31T23:35:25.741Z,58.57
2018-05-31T23:37:54.099Z,63.10
2018-05-31T23:40:22.589Z,62.80
2018-05-31T23:42:50.972Z,66.10
2018-05-31T23:45:19.337Z,59.80
2018-05-31T23:47:47.787Z,56.00
2018-05-31T23:50:16.165Z,59.97
2018-05-31T23:52:44.611Z,56.03
2018-05-31T23:55:12.956Z,63.23
2018-05-31T23:57:41.577Z,54.93
